Durango, CO (81301)

1:13 PM MDT on May 22, 2015 (GMT -0600)
Falls Creek Ranch | | Change Station
CLOSE
Current Station
Personal Weather Station
Location: Durango, CO
Elevation: 7560 ft
Nearby Weather Stations

Elev 7560 ft 37.29 °N, 107.87 °W | Updated 11 minutes ago

Mostly Cloudy
Mostly Cloudy
55.9 °F
Feels Like 55.9 °F
N
4.0
Wind Variable Wind from SW
Gusts 11.0 mph

Today
High -- | Low -- °F
--% Chance of Precip.
Yesterday
High -- | Low -- °F
Precip. -- in
5:57 AM 8:18 PM
Waxing Crescent, 23% visible
Pressure 29.94 in
Visibility 10.0 miles
Clouds Scattered Clouds 5500 ft
Mostly Cloudy 7500 ft
Overcast 9500 ft
Dew Point 32 °F
Humidity 40%
Rainfall 0.02 in
Snow Depth Not available.
UV 4 out of 12
Pollen 6.00 out of 12
Air Quality Not available.
Flu Activity Sporadic
METAR KDRO 221853Z AUTO 07004KT 10SM -RA SCT055 BKN075 OVC095 13/02 A3005 RMK AO2 RAB45 SLP137 P0000 T01330022

More Conditions Fewer Conditions

Pressure 29.94 in
Visibility 10.0 miles
Clouds Scattered Clouds 5500 ft
Mostly Cloudy 7500 ft
Overcast 9500 ft
Dew Point 32 °F
Humidity 40%
Rainfall 0.02 in
Snow Depth Not available.
UV 4 out of 12
Pollen 6.00 out of 12
Air Quality Not available.
Flu Activity Sporadic
METAR KDRO 221853Z AUTO 07004KT 10SM -RA SCT055 BKN075 OVC095 13/02 A3005 RMK AO2 RAB45 SLP137 P0000 T01330022

More Conditions Fewer Conditions

10-Day Weather Forecast

Almanac

Astronomy

May. 22, 2015 Rise Set
Actual Time
Civil Twilight
Nautical Twilight
Astronomical Twilight
Moon
Length of Visible Light
Length of Day
Tomorrow will be .
, % of the Moon is Illuminated

Today's Extremes

State Highs State Lows

Community

WunderPhotos

Upload Photos

1,823,279 photos uploaded!

WunderBlogs® & News

Nearby

Air Quality

  Air Quality AQ Index Pollutant
Not available.

Snow Depth

Station Depth Elevation

Earthquake Activity

City Distance Mag. Time & Date
Minimum magnitude displayed is 2.5.

Coastal Water Temperatures

Place Temperature

Stations

Nearby Weather Stations

Station Location Temp. Windchill Dew Point Humidity Wind Precip. Elev Updated Type